Time;durP1;ratioP1;P1;durP2;ratioP2;P2;SDS_P1;SDS_P2;PMS_P1;PMS_P2;Temp;Humidity;BMP_temperature;BMP_pressure;BME280_temperature;BME280_humidity;BME280_pressure;Samples;Min_cycle;Max_cycle;Signal;HPM_P1;HPM_P2
2021/07/09 00:03:05;;;;;;;12.73;7.20;;;16.00;99.90;;;;;;6255796;28;20083;-82
2021/07/09 00:06:05;;;;;;;10.90;7.80;;;15.90;99.90;;;;;;6237123;28;20029;-82
2021/07/09 00:09:06;;;;;;;8.23;6.95;;;15.90;99.90;;;;;;6237046;28;20052;-81
2021/07/09 00:12:07;;;;;;;11.13;6.97;;;15.80;99.90;;;;;;6236494;28;20418;-81
2021/07/09 00:15:08;;;;;;;13.68;8.23;;;15.90;99.90;;;;;;6269747;28;20037;-81
2021/07/09 00:18:08;;;;;;;10.48;8.30;;;15.80;99.90;;;;;;6253177;28;20036;-81
2021/07/09 00:21:09;;;;;;;9.38;7.60;;;15.70;99.90;;;;;;6237306;28;20104;-81
2021/07/09 00:24:10;;;;;;;10.93;7.72;;;15.60;99.90;;;;;;6236683;28;20029;-81
2021/07/09 00:27:11;;;;;;;9.60;7.28;;;15.60;99.90;;;;;;6253299;28;20025;-81
2021/07/09 00:30:12;;;;;;;9.77;7.25;;;15.60;99.90;;;;;;6236705;28;20029;-81
2021/07/09 00:33:13;;;;;;;9.23;7.55;;;15.60;99.90;;;;;;6236418;28;20075;-81
2021/07/09 00:36:13;;;;;;;9.82;7.50;;;15.60;99.90;;;;;;6253021;28;20056;-81
2021/07/09 00:39:14;;;;;;;8.63;7.40;;;15.60;99.90;;;;;;6269126;28;20029;-81
2021/07/09 00:42:14;;;;;;;7.90;6.60;;;15.60;99.90;;;;;;6236503;28;20442;-81
2021/07/09 00:45:15;;;;;;;11.05;7.25;;;15.60;99.90;;;;;;6236063;28;20474;-81
2021/07/09 00:48:16;;;;;;;9.35;7.68;;;15.60;99.90;;;;;;6252754;28;20032;-81
2021/07/09 00:51:16;;;;;;;10.02;6.93;;;15.60;99.90;;;;;;6270324;28;20466;-81
2021/07/09 00:54:17;;;;;;;7.72;6.80;;;15.60;99.90;;;;;;6253290;28;20425;-81
2021/07/09 00:57:18;;;;;;;8.73;6.40;;;15.60;99.90;;;;;;6252553;28;20086;-81
2021/07/09 01:00:19;;;;;;;7.60;6.45;;;15.60;99.90;;;;;;6236004;28;20389;-81
2021/07/09 01:03:20;;;;;;;6.50;5.80;;;15.50;99.90;;;;;;6219435;28;20068;-81
2021/07/09 01:06:21;;;;;;;7.18;6.35;;;15.60;99.90;;;;;;6252161;28;20033;-81
2021/07/09 01:09:21;;;;;;;9.43;5.78;;;15.50;99.90;;;;;;6236083;28;20032;-81
2021/07/09 01:12:22;;;;;;;6.03;5.25;;;15.50;99.90;;;;;;6251529;28;20064;-81
2021/07/09 01:15:23;;;;;;;6.25;5.40;;;15.50;99.90;;;;;;6252301;28;20029;-79
2021/07/09 01:18:24;;;;;;;10.00;5.88;;;15.50;99.90;;;;;;6235482;28;20033;-81
2021/07/09 01:21:25;;;;;;;7.38;6.10;;;15.50;99.90;;;;;;6219038;28;20033;-81
2021/07/09 01:24:25;;;;;;;10.85;6.40;;;15.50;99.90;;;;;;6252130;28;20036;-81
2021/07/09 01:27:26;;;;;;;8.07;6.55;;;15.50;99.90;;;;;;6269734;28;20410;-81
2021/07/09 01:30:27;;;;;;;10.13;6.53;;;15.50;99.90;;;;;;6252094;28;20032;-80
2021/07/09 01:33:28;;;;;;;7.93;6.57;;;15.50;99.90;;;;;;6235327;28;20632;-80
2021/07/09 01:36:28;;;;;;;7.10;6.00;;;15.50;99.90;;;;;;6235167;28;20029;-81
2021/07/09 01:39:29;;;;;;;6.25;5.65;;;15.40;99.90;;;;;;6234689;28;20025;-80
2021/07/09 01:42:30;;;;;;;7.28;5.65;;;15.50;99.90;;;;;;6234537;28;20056;-81
2021/07/09 01:45:30;;;;;;;6.30;5.78;;;15.40;99.90;;;;;;6267710;28;20029;-82
2021/07/09 01:48:31;;;;;;;5.97;5.28;;;15.40;99.90;;;;;;6234928;28;20104;-82
2021/07/09 01:51:32;;;;;;;6.10;5.50;;;15.30;99.90;;;;;;6250964;28;20116;-82
2021/07/09 01:54:32;;;;;;;6.20;5.05;;;15.40;99.90;;;;;;6251107;28;20033;-81
2021/07/09 01:57:33;;;;;;;9.68;5.97;;;15.30;99.90;;;;;;6234369;28;20044;-81
2021/07/09 02:00:33;;;;;;;11.27;5.57;;;15.30;99.90;;;;;;6234338;28;20029;-80
2021/07/09 02:03:34;;;;;;;7.20;4.75;;;15.30;99.90;;;;;;6267452;28;20025;-81
2021/07/09 02:06:34;;;;;;;10.98;5.05;;;15.30;99.90;;;;;;6234203;28;20021;-81
2021/07/09 02:09:35;;;;;;;5.38;4.88;;;15.20;99.90;;;;;;6268474;28;20080;-80
2021/07/09 02:12:36;;;;;;;6.57;5.38;;;15.20;99.90;;;;;;6250305;28;20175;-81
2021/07/09 02:15:44;;;;;;;10.55;4.93;;;15.20;99.90;;;;;;6234116;28;20041;-81
2021/07/09 02:18:46;;;;;;;8.25;5.40;;;15.20;99.90;;;;;;6234516;28;20037;-81
2021/07/09 02:21:47;;;;;;;5.90;4.22;;;15.20;99.90;;;;;;6250712;28;20028;-81
2021/07/09 02:24:49;;;;;;;7.78;4.60;;;15.20;99.90;;;;;;6250188;28;20036;-81
2021/07/09 02:27:50;;;;;;;6.45;4.78;;;15.20;99.90;;;;;;6217627;28;20112;-81
2021/07/09 02:30:51;;;;;;;5.43;4.50;;;15.10;99.90;;;;;;6217807;28;20039;-81
2021/07/09 02:33:52;;;;;;;6.80;4.90;;;15.10;99.90;;;;;;6249954;28;20681;-81
2021/07/09 02:36:52;;;;;;;6.60;4.95;;;15.10;99.90;;;;;;6250254;28;20393;-81
2021/07/09 02:39:53;;;;;;;5.15;4.65;;;15.00;99.90;;;;;;6249957;28;20033;-81
2021/07/09 02:42:54;;;;;;;5.25;4.80;;;15.00;99.90;;;;;;6233785;28;20063;-81
2021/07/09 02:45:55;;;;;;;10.03;5.07;;;14.90;99.90;;;;;;6249942;28;20211;-81
2021/07/09 02:48:56;;;;;;;8.00;4.63;;;14.90;99.90;;;;;;6250062;28;20582;-81
2021/07/09 02:51:56;;;;;;;8.98;4.68;;;14.90;99.90;;;;;;6248813;28;20037;-81
2021/07/09 02:54:57;;;;;;;5.93;4.63;;;14.80;99.90;;;;;;6249946;28;20434;-82
2021/07/09 02:57:57;;;;;;;6.05;5.43;;;14.80;99.90;;;;;;6267753;28;20031;-81
2021/07/09 03:00:58;;;;;;;5.60;5.00;;;14.80;99.90;;;;;;6249747;28;20388;-81
2021/07/09 03:03:59;;;;;;;8.15;5.72;;;14.80;99.90;;;;;;6233345;28;20029;-81
2021/07/09 03:06:59;;;;;;;10.32;5.40;;;14.80;99.90;;;;;;6249538;28;20025;-81
2021/07/09 03:10:00;;;;;;;9.30;5.18;;;14.70;99.90;;;;;;6233702;28;20087;-82
2021/07/09 03:13:01;;;;;;;8.85;5.40;;;14.70;99.90;;;;;;6233127;28;20064;-81
2021/07/09 03:16:01;;;;;;;6.40;4.82;;;14.60;99.90;;;;;;6216651;28;20068;-80
2021/07/09 03:19:04;;;;;;;7.70;5.30;;;14.60;99.90;;;;;;6233082;28;20063;-81
2021/07/09 03:22:05;;;;;;;5.03;4.53;;;14.50;99.90;;;;;;6233491;28;20029;-81
2021/07/09 03:25:06;;;;;;;7.00;4.97;;;14.50;99.90;;;;;;6232872;28;20083;-82
2021/07/09 03:28:07;;;;;;;9.88;5.68;;;14.40;99.90;;;;;;6233259;28;20025;-81
2021/07/09 03:31:07;;;;;;;5.80;5.20;;;14.40;99.90;;;;;;6233071;28;20617;-82
2021/07/09 03:34:10;;;;;;;8.75;5.45;;;14.30;99.90;;;;;;6216375;28;20606;-81
2021/07/09 03:37:11;;;;;;;10.05;5.78;;;14.30;99.90;;;;;;6249436;28;20120;-81
2021/07/09 03:40:11;;;;;;;8.15;5.68;;;14.20;99.90;;;;;;6232918;28;20039;-82
2021/07/09 03:43:12;;;;;;;8.07;6.97;;;14.20;99.90;;;;;;6232880;28;20061;-81
2021/07/09 03:46:13;;;;;;;12.20;6.68;;;14.20;99.90;;;;;;6232801;28;20029;-82
2021/07/09 03:49:13;;;;;;;8.48;6.72;;;14.20;99.90;;;;;;6232764;28;20032;-80
2021/07/09 03:52:14;;;;;;;6.35;5.72;;;14.20;99.90;;;;;;6249054;28;20112;-81
2021/07/09 03:55:14;;;;;;;6.85;6.10;;;14.20;99.90;;;;;;6267252;28;20455;-81
2021/07/09 03:58:15;;;;;;;7.20;5.22;;;14.20;99.90;;;;;;6216444;28;20029;-81
2021/07/09 04:01:16;;;;;;;7.30;5.18;;;14.20;99.90;;;;;;6232759;28;20033;-80
2021/07/09 04:04:16;;;;;;;7.32;5.90;;;14.20;99.90;;;;;;6234817;28;20051;-80
2021/07/09 04:07:17;;;;;;;8.65;5.88;;;14.20;99.90;;;;;;6253583;28;20029;-82
2021/07/09 04:10:17;;;;;;;6.20;5.47;;;14.20;99.90;;;;;;6236986;28;20382;-81
2021/07/09 04:13:18;;;;;;;11.00;6.32;;;14.10;99.90;;;;;;6253310;28;20049;-80
2021/07/09 04:16:19;;;;;;;10.25;6.82;;;14.10;99.90;;;;;;6253561;28;20037;-81
2021/07/09 04:19:19;;;;;;;6.95;6.25;;;14.20;99.90;;;;;;6236831;28;20025;-81
2021/07/09 04:22:20;;;;;;;9.32;5.78;;;14.10;99.90;;;;;;6236916;28;20071;-80
2021/07/09 04:25:20;;;;;;;6.63;5.45;;;14.10;99.90;;;;;;6236744;28;20033;-80
2021/07/09 04:28:21;;;;;;;5.85;5.22;;;14.10;99.90;;;;;;6236639;28;20037;-81
2021/07/09 04:31:22;;;;;;;11.60;5.97;;;14.10;99.90;;;;;;6236732;28;20036;-82
2021/07/09 04:34:22;;;;;;;9.00;5.47;;;14.20;99.90;;;;;;6235940;28;20056;-81
2021/07/09 04:37:23;;;;;;;7.32;5.28;;;14.10;99.90;;;;;;6236582;28;20029;-81
2021/07/09 04:40:24;;;;;;;5.70;5.07;;;14.20;99.90;;;;;;6236837;28;20071;-83
2021/07/09 04:43:24;;;;;;;9.73;5.47;;;14.20;99.90;;;;;;6236440;28;20106;-84
2021/07/09 04:46:25;;;;;;;7.18;4.65;;;14.40;99.90;;;;;;6236161;28;20052;-85
2021/07/09 04:49:25;;;;;;;7.07;4.97;;;14.60;99.90;;;;;;6236338;28;20118;-79
2021/07/09 04:52:26;;;;;;;7.22;5.38;;;14.70;99.90;;;;;;6270593;28;20386;-79
2021/07/09 04:55:27;;;;;;;8.75;5.40;;;14.80;99.90;;;;;;6252221;28;20029;-82
2021/07/09 04:58:27;;;;;;;11.65;5.05;;;14.90;99.90;;;;;;6219896;28;20029;-84
2021/07/09 05:01:28;;;;;;;6.45;5.20;;;15.00;99.90;;;;;;6219630;28;20029;-85
2021/07/09 05:04:28;;;;;;;6.88;4.82;;;15.00;99.90;;;;;;6236419;28;20063;-86
2021/07/09 05:07:29;;;;;;;5.85;5.03;;;15.10;99.90;;;;;;6236587;28;20033;-88
2021/07/09 05:10:30;;;;;;;7.63;5.00;;;15.10;99.90;;;;;;6236622;28;20025;-86
2021/07/09 05:13:30;;;;;;;7.97;5.53;;;15.10;99.90;;;;;;6235530;28;20171;-86
2021/07/09 05:16:33;;;;;;;7.30;6.57;;;15.10;99.90;;;;;;6234766;28;20037;-85
2021/07/09 05:19:34;;;;;;;8.45;5.47;;;15.10;99.90;;;;;;6236372;28;20025;-86
2021/07/09 05:22:35;;;;;;;9.10;5.50;;;15.10;99.90;;;;;;6236769;28;20094;-87
2021/07/09 05:25:35;;;;;;;8.35;5.20;;;15.20;99.90;;;;;;6252453;28;20059;-85
2021/07/09 05:28:36;;;;;;;6.75;5.45;;;15.20;99.90;;;;;;6219927;28;20029;-90
2021/07/09 05:31:39;;;;;;;6.30;5.60;;;15.10;99.90;;;;;;6238059;28;20037;-80
2021/07/09 05:34:40;;;;;;;9.20;5.47;;;15.10;99.90;;;;;;6234763;28;20111;-83
2021/07/09 05:37:41;;;;;;;7.25;5.18;;;15.30;99.90;;;;;;6223854;28;20024;-80
2021/07/09 05:40:41;;;;;;;9.43;5.50;;;15.30;99.90;;;;;;6235954;28;20501;-87
2021/07/09 05:43:43;;;;;;;7.35;5.38;;;15.40;99.90;;;;;;6235963;28;20081;-87
2021/07/09 05:46:43;;;;;;;6.68;5.38;;;15.50;99.90;;;;;;6236556;28;20021;-88
2021/07/09 05:49:44;;;;;;;4.88;4.47;;;15.50;99.90;;;;;;6236288;28;20071;-87
2021/07/09 05:52:45;;;;;;;6.72;5.00;;;15.60;99.90;;;;;;6234528;28;20040;-82
2021/07/09 05:55:46;;;;;;;6.75;4.93;;;15.70;99.90;;;;;;6250962;28;20494;-81
2021/07/09 05:58:47;;;;;;;6.40;4.53;;;15.70;99.90;;;;;;6235449;28;20029;-87
2021/07/09 06:01:48;;;;;;;5.47;4.68;;;15.90;99.90;;;;;;6235093;28;20120;-87
2021/07/09 06:04:48;;;;;;;8.88;4.85;;;16.10;99.90;;;;;;6234979;28;20067;-87
2021/07/09 06:07:49;;;;;;;5.15;4.65;;;16.40;99.90;;;;;;6234674;28;20398;-87
2021/07/09 06:10:50;;;;;;;6.28;5.20;;;16.70;99.90;;;;;;6218364;28;20124;-87
2021/07/09 06:13:50;;;;;;;8.80;4.63;;;17.30;99.90;;;;;;6250636;28;20092;-87
2021/07/09 06:16:51;;;;;;;6.30;4.45;;;17.60;99.90;;;;;;6234632;28;20108;-87
2021/07/09 06:19:51;;;;;;;5.60;4.25;;;17.70;99.90;;;;;;6234241;28;20029;-87
2021/07/09 06:22:52;;;;;;;10.10;4.40;;;17.90;99.90;;;;;;6250721;28;20028;-87
2021/07/09 06:25:53;;;;;;;8.95;4.40;;;17.90;99.90;;;;;;6250895;28;20055;-87
2021/07/09 06:28:54;;;;;;;4.30;3.90;;;18.00;99.90;;;;;;6217721;28;20548;-86
2021/07/09 06:31:55;;;;;;;7.90;4.17;;;18.00;99.90;;;;;;6234378;28;20025;-87
2021/07/09 06:34:55;;;;;;;5.78;4.10;;;18.00;99.90;;;;;;6234136;28;20238;-87
2021/07/09 06:37:57;;;;;;;5.78;3.85;;;18.10;99.90;;;;;;6265530;28;20025;-87
2021/07/09 06:40:57;;;;;;;5.95;3.85;;;18.40;99.90;;;;;;6217391;28;20039;-86
2021/07/09 06:43:59;;;;;;;4.85;4.00;;;18.60;99.90;;;;;;6234074;28;20045;-86
2021/07/09 06:47:00;;;;;;;6.38;4.15;;;18.60;99.90;;;;;;6234581;28;20028;-86
2021/07/09 06:50:13;;;;;;;5.93;3.83;;;18.50;99.90;;;;;;6233742;28;20025;-87
2021/07/09 06:53:15;;;;;;;4.72;3.90;;;18.40;99.90;;;;;;6234026;28;20401;-87
2021/07/09 06:56:16;;;;;;;4.68;4.22;;;18.30;99.90;;;;;;6233612;28;20048;-87
2021/07/09 06:59:16;;;;;;;4.85;4.07;;;18.30;99.90;;;;;;6250263;28;20025;-87
2021/07/09 07:02:17;;;;;;;6.63;4.05;;;18.30;99.90;;;;;;6233775;28;20037;-87
2021/07/09 07:05:18;;;;;;;5.75;3.92;;;18.30;99.90;;;;;;6233682;28;20040;-87
2021/07/09 07:08:20;;;;;;;7.80;4.00;;;18.40;99.90;;;;;;6233469;28;20047;-87
2021/07/09 07:11:21;;;;;;;6.03;4.00;;;18.50;99.90;;;;;;6237649;28;20509;-87
2021/07/09 07:14:22;;;;;;;5.47;4.65;;;18.60;99.90;;;;;;6233171;28;20112;-86
2021/07/09 07:17:22;;;;;;;7.22;4.07;;;18.80;99.90;;;;;;6233679;28;20178;-87
2021/07/09 07:20:23;;;;;;;7.32;3.97;;;18.60;99.90;;;;;;6233172;28;20029;-87
2021/07/09 07:23:23;;;;;;;4.28;3.88;;;18.60;99.90;;;;;;6216836;28;20457;-87
2021/07/09 07:26:24;;;;;;;4.35;3.60;;;18.60;99.90;;;;;;6233642;28;20037;-87
2021/07/09 07:29:25;;;;;;;4.55;3.78;;;18.70;99.90;;;;;;6232864;28;20398;-87
2021/07/09 07:32:26;;;;;;;5.20;3.80;;;18.90;99.90;;;;;;6233365;28;20068;-87
2021/07/09 07:35:28;;;;;;;4.28;3.88;;;19.50;99.90;;;;;;6249884;28;20044;-86
2021/07/09 07:38:28;;;;;;;5.43;4.13;;;20.40;99.90;;;;;;6234690;28;20033;-86
2021/07/09 07:41:29;;;;;;;8.63;4.25;;;20.70;99.90;;;;;;6237843;28;20268;-86
2021/07/09 07:44:29;;;;;;;5.40;3.70;;;20.80;99.90;;;;;;6238492;28;20033;-86
2021/07/09 07:47:30;;;;;;;6.13;3.92;;;20.80;99.90;;;;;;6237776;28;20124;-86
2021/07/09 07:50:31;;;;;;;5.97;4.05;;;20.80;99.90;;;;;;6237333;28;20446;-86
2021/07/09 07:53:34;;;;;;;6.85;3.75;;;20.60;99.90;;;;;;6237553;28;20055;-86
2021/07/09 07:56:35;;;;;;;7.90;5.03;;;20.40;99.90;;;;;;6238255;28;20036;-87
2021/07/09 07:59:35;;;;;;;4.40;3.75;;;19.90;99.90;;;;;;6237501;28;20025;-86
2021/07/09 08:02:36;;;;;;;4.25;3.80;;;19.40;99.90;;;;;;6237046;28;20055;-86
2021/07/09 08:05:37;;;;;;;5.07;3.75;;;19.00;99.90;;;;;;6221178;28;20208;-86
2021/07/09 08:08:38;;;;;;;5.68;3.80;;;18.80;99.90;;;;;;6237000;28;20048;-86
2021/07/09 08:11:39;;;;;;;4.93;4.43;;;18.60;99.90;;;;;;6221039;28;20081;-87
2021/07/09 08:14:39;;;;;;;6.03;4.22;;;18.50;99.90;;;;;;6220615;28;20058;-86
2021/07/09 08:17:40;;;;;;;4.43;3.67;;;18.60;99.90;;;;;;6253876;28;20025;-86
2021/07/09 08:20:41;;;;;;;4.50;3.70;;;18.60;99.90;;;;;;6220824;28;20120;-86
2021/07/09 08:23:42;;;;;;;7.88;3.90;;;18.80;99.90;;;;;;6236736;28;20063;-86
2021/07/09 08:26:43;;;;;;;11.32;4.40;;;19.00;99.90;;;;;;6237387;28;20482;-86
2021/07/09 08:29:44;;;;;;;5.13;4.03;;;19.40;99.90;;;;;;6253081;28;20036;-86
2021/07/09 08:32:44;;;;;;;4.80;3.67;;;20.00;99.90;;;;;;6220317;28;20529;-86
2021/07/09 08:35:45;;;;;;;4.18;3.78;;;20.90;99.90;;;;;;6236427;28;20382;-86
2021/07/09 08:38:45;;;;;;;4.20;3.65;;;21.80;99.90;;;;;;6236685;28;20025;-86
2021/07/09 08:41:48;;;;;;;5.47;3.60;;;22.40;99.90;;;;;;6252953;28;20032;-86
2021/07/09 08:44:48;;;;;;;5.25;3.42;;;22.70;99.00;;;;;;6237121;28;20025;-86
2021/07/09 08:47:49;;;;;;;4.65;3.58;;;23.10;97.30;;;;;;6220143;28;20075;-86
2021/07/09 08:50:50;;;;;;;4.82;3.88;;;23.40;96.50;;;;;;6234735;28;20025;-86
2021/07/09 08:53:50;;;;;;;4.65;3.22;;;23.70;96.10;;;;;;6219944;28;20056;-86
2021/07/09 08:56:51;;;;;;;4.28;3.60;;;23.80;94.80;;;;;;6236446;28;20033;-86
2021/07/09 08:59:52;;;;;;;4.95;3.70;;;23.70;95.30;;;;;;6236266;28;20428;-86
2021/07/09 09:02:56;;;;;;;3.78;3.38;;;23.50;95.70;;;;;;6236146;28;20033;-85
2021/07/09 09:06:00;;;;;;;4.07;3.50;;;24.00;95.50;;;;;;6252503;28;20064;-86
2021/07/09 09:09:13;;;;;;;3.80;3.40;;;25.10;94.60;;;;;;6236626;28;20112;-85
2021/07/09 09:12:15;;;;;;;4.05;3.03;;;26.10;92.60;;;;;;6251771;28;20081;-85
2021/07/09 09:15:23;;;;;;;8.98;3.60;;;26.90;91.50;;;;;;6235633;28;20040;-85
2021/07/09 09:18:29;;;;;;;3.80;3.40;;;27.30;86.80;;;;;;6235751;28;20056;-85
2021/07/09 09:21:30;;;;;;;4.25;3.30;;;26.90;88.70;;;;;;6253276;28;20039;-85
2021/07/09 09:24:30;;;;;;;3.40;3.10;;;26.30;87.20;;;;;;6235454;28;20025;-85
2021/07/09 09:27:31;;;;;;;4.73;3.47;;;26.10;87.50;;;;;;6235365;28;20036;-85
2021/07/09 09:30:32;;;;;;;5.03;3.43;;;26.00;89.80;;;;;;6235297;28;20025;-86
2021/07/09 09:33:34;;;;;;;4.43;3.60;;;26.10;87.70;;;;;;6235297;28;20045;-85
2021/07/09 09:36:35;;;;;;;4.60;3.28;;;26.70;89.10;;;;;;6235601;28;20058;-85
2021/07/09 09:39:38;;;;;;;3.63;3.20;;;27.30;81.60;;;;;;6235490;28;20033;-85
2021/07/09 09:42:40;;;;;;;3.80;3.40;;;27.60;81.60;;;;;;6235324;28;20066;-85
2021/07/09 09:45:40;;;;;;;5.35;3.33;;;27.50;80.80;;;;;;6235136;28;20025;-85
2021/07/09 09:48:47;;;;;;;3.70;3.20;;;27.10;80.80;;;;;;6251205;28;20394;-84
2021/07/09 09:51:50;;;;;;;5.30;3.55;;;27.30;79.90;;;;;;6234721;28;20056;-85
2021/07/09 09:54:51;;;;;;;5.20;3.53;;;27.20;79.10;;;;;;6251040;28;20041;-85
2021/07/09 09:58:27;;;;;;;4.13;3.33;;;27.30;80.00;;;;;;6234799;28;20035;-85
2021/07/09 10:01:31;;;;;;;4.47;3.10;;;27.30;72.40;;;;;;6191600;28;20069;-84
2021/07/09 10:04:32;;;;;;;5.45;3.25;;;26.80;75.40;;;;;;6192271;28;20030;-85
2021/07/09 10:07:35;;;;;;;3.55;3.00;;;26.80;78.20;;;;;;6191918;28;20034;-85
2021/07/09 10:10:36;;;;;;;4.05;3.47;;;26.90;74.50;;;;;;6192123;28;20073;-85
2021/07/09 10:13:37;;;;;;;3.60;3.17;;;26.70;74.00;;;;;;6189054;28;20066;-85
2021/07/09 10:16:38;;;;;;;4.33;3.37;;;26.30;77.70;;;;;;6159489;28;20560;-85
2021/07/09 10:19:43;;;;;;;5.22;3.20;;;25.70;78.30;;;;;;6159940;28;20037;-84
2021/07/09 10:22:46;;;;;;;4.60;3.05;;;25.10;80.80;;;;;;6197809;28;20040;-85
2021/07/09 10:25:50;;;;;;;5.10;3.10;;;24.50;84.70;;;;;;6159399;28;20057;-85
2021/07/09 10:29:13;;;;;;;4.60;3.47;;;24.20;85.10;;;;;;6159434;28;20469;-85
2021/07/09 10:32:32;;;;;;;3.65;3.10;;;23.90;86.90;;;;;;6207708;28;20093;-85
2021/07/09 10:35:37;;;;;;;3.53;3.22;;;23.70;87.10;;;;;;6207644;28;20044;-85
2021/07/09 10:38:39;;;;;;;4.82;3.50;;;23.60;87.80;;;;;;6235016;28;20028;-86
2021/07/09 10:41:41;;;;;;;3.95;3.40;;;23.50;88.80;;;;;;6234526;28;20526;-85
2021/07/09 10:45:02;;;;;;;3.92;3.20;;;23.40;89.70;;;;;;6266810;28;20033;-84
2021/07/09 10:48:03;;;;;;;4.17;3.23;;;23.40;89.90;;;;;;6250250;28;20051;-84
2021/07/09 10:51:04;;;;;;;8.50;3.43;;;23.40;90.00;;;;;;6267555;28;20025;-85
2021/07/09 10:54:26;;;;;;;4.47;3.05;;;23.70;89.20;;;;;;6233634;28;20117;-85
2021/07/09 10:57:26;;;;;;;5.23;3.50;;;24.50;90.10;;;;;;6231734;28;20033;-84
2021/07/09 11:00:29;;;;;;;4.10;3.70;;;25.50;88.80;;;;;;6232307;28;20036;-85
2021/07/09 11:03:31;;;;;;;5.38;3.33;;;25.70;83.00;;;;;;6233026;28;20037;-85
2021/07/09 11:06:31;;;;;;;3.75;3.17;;;25.70;84.10;;;;;;6249667;28;20021;-85
2021/07/09 11:09:38;;;;;;;5.87;3.30;;;25.80;84.50;;;;;;6249650;28;20028;-85
2021/07/09 11:12:39;;;;;;;4.93;3.55;;;26.00;81.80;;;;;;6232874;28;20067;-85
2021/07/09 11:15:40;;;;;;;4.53;3.53;;;25.80;80.30;;;;;;6238487;28;20029;-86
2021/07/09 11:19:03;;;;;;;4.67;4.13;;;25.60;81.70;;;;;;6238489;28;20387;-85
2021/07/09 11:22:08;;;;;;;4.05;3.58;;;25.40;81.60;;;;;;6251681;28;20044;-85
2021/07/09 11:25:09;;;;;;;3.67;3.25;;;25.10;82.00;;;;;;6222521;28;20528;-86
2021/07/09 11:28:10;;;;;;;4.47;3.50;;;25.00;84.60;;;;;;6238382;28;20029;-86
2021/07/09 11:31:10;;;;;;;4.70;3.50;;;25.00;83.30;;;;;;6237951;28;20135;-86
2021/07/09 11:34:13;;;;;;;8.63;4.07;;;25.10;83.50;;;;;;6238110;28;20091;-86
2021/07/09 11:37:18;;;;;;;3.65;3.35;;;25.10;84.00;;;;;;6237978;28;20025;-86
2021/07/09 11:40:19;;;;;;;5.75;3.90;;;25.10;84.40;;;;;;6221773;28;20025;-81
2021/07/09 11:43:20;;;;;;;7.03;3.60;;;24.90;85.30;;;;;;6237114;28;20025;-81
2021/07/09 11:46:20;;;;;;;3.33;3.03;;;24.70;83.80;;;;;;6237854;28;20059;-82
2021/07/09 11:49:28;;;;;;;4.13;3.40;;;24.70;85.40;;;;;;6236965;28;20139;-81
2021/07/09 11:52:29;;;;;;;4.05;3.65;;;24.70;84.30;;;;;;6238375;28;20119;-81
2021/07/09 11:55:30;;;;;;;5.45;3.70;;;24.70;84.90;;;;;;6253736;28;20040;-82
2021/07/09 11:58:31;;;;;;;4.70;3.63;;;24.60;85.60;;;;;;6237971;28;20530;-82
2021/07/09 12:01:31;;;;;;;4.47;3.53;;;24.50;87.60;;;;;;6237324;28;20029;-82
2021/07/09 12:04:36;;;;;;;5.67;3.93;;;24.50;87.00;;;;;;6254427;28;20043;-82
2021/07/09 12:07:44;;;;;;;5.05;3.58;;;24.50;89.30;;;;;;6238099;28;20040;-81
2021/07/09 12:10:45;;;;;;;4.97;3.40;;;24.80;87.70;;;;;;6236387;28;20025;-80
2021/07/09 12:14:10;;;;;;;4.33;3.73;;;24.80;88.30;;;;;;6253721;28;20060;-79
2021/07/09 12:17:14;;;;;;;5.82;3.85;;;25.00;90.00;;;;;;6239200;28;20038;-81
2021/07/09 12:20:23;;;;;;;4.78;4.10;;;25.20;85.70;;;;;;6253698;28;20040;-83
2021/07/09 12:23:31;;;;;;;4.40;3.53;;;25.40;86.40;;;;;;6253196;28;20068;-82
2021/07/09 12:26:32;;;;;;;4.53;3.70;;;25.70;79.90;;;;;;6222555;28;20542;-83
2021/07/09 12:29:33;;;;;;;5.40;3.37;;;25.70;85.00;;;;;;6220401;28;20035;-83
2021/07/09 12:32:41;;;;;;;5.50;3.73;;;25.70;81.70;;;;;;6236199;28;20048;-82
2021/07/09 12:35:41;;;;;;;4.07;3.67;;;25.70;80.50;;;;;;6237585;28;20059;-83
2021/07/09 12:38:43;;;;;;;4.53;3.30;;;25.60;82.10;;;;;;6236531;28;20033;-83
2021/07/09 12:41:44;;;;;;;;;;;25.40;81.10;;;;;;6252455;28;20020;-83
2021/07/09 12:44:53;;;;;;;4.65;3.95;;;25.00;82.60;;;;;;6253529;28;19912;-79
2021/07/09 12:47:53;;;;;;;4.10;3.40;;;24.80;83.80;;;;;;6270629;28;20028;-82
2021/07/09 12:50:54;;;;;;;4.53;3.73;;;24.80;85.20;;;;;;6236567;28;20025;-83
2021/07/09 12:53:56;;;;;;;5.30;4.20;;;24.40;84.90;;;;;;6236031;28;20127;-79
2021/07/09 12:57:00;;;;;;;4.18;3.67;;;24.30;88.20;;;;;;6253151;28;20079;-85
2021/07/09 13:00:01;;;;;;;4.00;3.33;;;24.00;86.40;;;;;;6236717;28;20181;-86
2021/07/09 13:03:02;;;;;;;4.23;3.30;;;23.80;88.60;;;;;;6236665;28;20029;-89
2021/07/09 13:06:05;;;;;;;3.77;3.47;;;23.70;89.40;;;;;;6235851;28;20497;-79
2021/07/09 13:09:10;;;;;;;4.75;3.88;;;23.60;88.40;;;;;;6270134;28;20445;-79
2021/07/09 13:12:18;;;;;;;5.70;3.88;;;23.40;90.60;;;;;;6252162;28;20072;-80
2021/07/09 13:15:19;;;;;;;4.43;3.75;;;23.40;90.50;;;;;;6251333;28;20186;-88
2021/07/09 13:18:26;;;;;;;5.33;3.97;;;23.40;90.50;;;;;;6236020;28;20071;-87
2021/07/09 13:21:28;;;;;;;3.90;3.50;;;23.40;90.50;;;;;;6235882;28;20441;-88
2021/07/09 13:24:36;;;;;;;4.78;3.50;;;23.50;90.90;;;;;;6235698;28;20437;-88
2021/07/09 13:27:36;;;;;;;3.83;3.47;;;23.60;90.10;;;;;;6219224;28;20463;-87
2021/07/09 13:30:39;;;;;;;4.33;3.60;;;23.70;87.90;;;;;;6235607;28;20028;-87
2021/07/09 13:33:42;;;;;;;5.28;3.85;;;23.60;89.00;;;;;;6219857;28;20045;-87
2021/07/09 13:36:43;;;;;;;4.70;3.83;;;23.70;89.10;;;;;;6235824;28;20098;-87
2021/07/09 13:39:43;;;;;;;4.00;3.37;;;23.70;88.40;;;;;;6219570;28;20025;-88
2021/07/09 13:42:44;;;;;;;5.07;3.50;;;23.70;82.40;;;;;;6235906;28;20381;-88
2021/07/09 13:45:46;;;;;;;4.93;3.80;;;23.80;85.20;;;;;;6235728;28;20033;-87
2021/07/09 13:48:47;;;;;;;3.83;3.15;;;23.80;88.20;;;;;;6236301;28;20025;-87
2021/07/09 13:51:47;;;;;;;3.47;2.90;;;23.90;82.10;;;;;;6219051;28;20029;-87
2021/07/09 13:54:48;;;;;;;4.03;3.13;;;24.00;84.00;;;;;;6218759;28;20381;-86
2021/07/09 13:57:49;;;;;;;4.07;3.27;;;24.00;83.90;;;;;;6235638;28;20029;-88
2021/07/09 14:00:49;;;;;;;5.13;3.30;;;24.10;83.80;;;;;;6235389;28;20370;-88
2021/07/09 14:03:50;;;;;;;6.40;3.57;;;24.10;83.00;;;;;;6235465;28;20025;-88
2021/07/09 14:06:50;;;;;;;5.97;3.10;;;24.20;87.30;;;;;;6218737;28;20033;-88
2021/07/09 14:09:51;;;;;;;5.73;3.40;;;24.20;85.20;;;;;;6235283;28;20032;-88
2021/07/09 14:12:52;;;;;;;4.43;3.43;;;24.30;84.90;;;;;;6233917;28;20308;-88
2021/07/09 14:15:53;;;;;;;3.97;3.58;;;24.40;85.10;;;;;;6217484;28;20754;-88
2021/07/09 14:18:54;;;;;;;3.50;3.20;;;24.30;84.80;;;;;;6234232;28;20029;-88
2021/07/09 14:21:54;;;;;;;3.80;3.40;;;24.20;85.80;;;;;;6233861;28;20068;-88
2021/07/09 14:24:55;;;;;;;5.77;3.23;;;24.20;85.80;;;;;;6234302;28;20025;-88
2021/07/09 14:27:56;;;;;;;5.03;3.47;;;24.20;86.60;;;;;;6233336;28;20040;-88
2021/07/09 14:30:57;;;;;;;3.60;3.23;;;24.30;85.60;;;;;;6217788;28;20040;-87
2021/07/09 14:33:58;;;;;;;5.70;3.40;;;24.20;86.20;;;;;;6233735;28;20128;-87
2021/07/09 14:36:59;;;;;;;6.80;3.63;;;24.30;86.80;;;;;;6234010;28;20031;-88
2021/07/09 14:39:59;;;;;;;3.50;3.17;;;24.30;86.20;;;;;;6233478;28;20037;-88
2021/07/09 14:43:00;;;;;;;3.87;3.30;;;24.30;85.90;;;;;;6217444;28;20065;-88
2021/07/09 14:46:01;;;;;;;6.10;3.40;;;24.40;85.80;;;;;;6217067;28;20043;-88
2021/07/09 14:49:02;;;;;;;4.13;3.73;;;24.50;85.60;;;;;;6217216;28;20036;-88
2021/07/09 14:52:03;;;;;;;4.33;3.13;;;24.50;84.60;;;;;;6242389;28;20076;-89
2021/07/09 14:55:05;;;;;;;4.50;3.73;;;24.60;84.30;;;;;;6233045;28;20025;-88
2021/07/09 14:58:05;;;;;;;4.38;3.20;;;24.50;82.00;;;;;;6233248;28;20041;-88
2021/07/09 15:01:07;;;;;;;3.93;3.37;;;24.50;82.60;;;;;;6233244;28;20386;-88
2021/07/09 15:04:07;;;;;;;3.33;3.03;;;24.30;84.80;;;;;;6233861;28;20029;-88
2021/07/09 15:07:08;;;;;;;3.27;2.77;;;24.40;84.00;;;;;;6242079;28;20060;-88
2021/07/09 15:10:09;;;;;;;3.40;3.10;;;24.20;78.50;;;;;;6233542;28;20025;-88
2021/07/09 15:13:09;;;;;;;6.53;3.35;;;23.90;78.00;;;;;;6190880;28;1240919;-87
2021/07/09 15:16:10;;;;;;;6.30;3.50;;;23.80;79.40;;;;;;6217458;28;20508;-87
2021/07/09 15:19:11;;;;;;;5.37;3.63;;;23.70;80.70;;;;;;6234127;28;20090;-89
2021/07/09 15:22:12;;;;;;;4.83;3.57;;;23.70;86.80;;;;;;6234071;28;20032;-88
2021/07/09 15:25:15;;;;;;;3.73;3.30;;;23.70;84.70;;;;;;6217792;28;20115;-87
2021/07/09 15:28:18;;;;;;;5.05;3.65;;;23.70;84.70;;;;;;6249830;28;20078;-88
2021/07/09 15:31:19;;;;;;;5.00;3.40;;;23.90;83.10;;;;;;6218748;28;20033;-88
2021/07/09 15:34:19;;;;;;;5.23;3.40;;;24.30;82.60;;;;;;6217271;28;20045;-81
2021/07/09 15:37:20;;;;;;;3.00;2.70;;;24.60;78.00;;;;;;6249739;28;20025;-86
2021/07/09 15:40:21;;;;;;;5.00;2.63;;;24.60;78.40;;;;;;6234312;28;20029;-88
2021/07/09 15:43:21;;;;;;;5.47;2.50;;;24.60;75.40;;;;;;6217670;28;20056;-85
2021/07/09 15:46:22;;;;;;;3.17;2.80;;;24.70;77.60;;;;;;6216521;28;20652;-86